sensor_id;sensor_type;location;lat;lon;timestamp;temperature;humidity
83808;SHT31;73824;40.292;17.998;2024-03-06T00:02:07;9.50;90.53
83808;SHT31;73824;40.292;17.998;2024-03-06T00:04:32;9.50;90.60
83808;SHT31;73824;40.292;17.998;2024-03-06T00:06:58;9.45;90.71
83808;SHT31;73824;40.292;17.998;2024-03-06T00:09:25;9.40;90.84
83808;SHT31;73824;40.292;17.998;2024-03-06T00:11:54;9.42;90.93
83808;SHT31;73824;40.292;17.998;2024-03-06T00:14:20;9.43;90.86
83808;SHT31;73824;40.292;17.998;2024-03-06T00:16:47;9.39;90.86
83808;SHT31;73824;40.292;17.998;2024-03-06T00:19:13;9.38;90.86
83808;SHT31;73824;40.292;17.998;2024-03-06T00:21:39;9.35;90.89
83808;SHT31;73824;40.292;17.998;2024-03-06T00:24:05;9.29;90.98
83808;SHT31;73824;40.292;17.998;2024-03-06T00:26:30;9.27;91.04
83808;SHT31;73824;40.292;17.998;2024-03-06T00:28:56;9.29;91.15
83808;SHT31;73824;40.292;17.998;2024-03-06T00:31:21;9.27;91.18
83808;SHT31;73824;40.292;17.998;2024-03-06T00:33:48;9.22;91.25
83808;SHT31;73824;40.292;17.998;2024-03-06T00:36:13;9.22;91.26
83808;SHT31;73824;40.292;17.998;2024-03-06T00:38:39;9.25;91.37
83808;SHT31;73824;40.292;17.998;2024-03-06T00:41:04;9.27;91.43
83808;SHT31;73824;40.292;17.998;2024-03-06T00:43:30;9.24;91.45
83808;SHT31;73824;40.292;17.998;2024-03-06T00:45:55;9.18;91.46
83808;SHT31;73824;40.292;17.998;2024-03-06T00:48:21;9.18;91.47
83808;SHT31;73824;40.292;17.998;2024-03-06T00:50:46;9.18;91.53
83808;SHT31;73824;40.292;17.998;2024-03-06T00:53:12;9.19;91.58
83808;SHT31;73824;40.292;17.998;2024-03-06T00:55:37;9.17;91.61
83808;SHT31;73824;40.292;17.998;2024-03-06T00:58:03;9.12;91.62
83808;SHT31;73824;40.292;17.998;2024-03-06T01:00:29;9.14;91.68
83808;SHT31;73824;40.292;17.998;2024-03-06T01:02:55;9.17;91.67
83808;SHT31;73824;40.292;17.998;2024-03-06T01:05:21;9.19;91.80
83808;SHT31;73824;40.292;17.998;2024-03-06T01:07:46;9.14;91.79
83808;SHT31;73824;40.292;17.998;2024-03-06T01:10:12;9.12;91.81
83808;SHT31;73824;40.292;17.998;2024-03-06T01:12:38;9.18;91.83
83808;SHT31;73824;40.292;17.998;2024-03-06T01:15:04;9.18;91.82
83808;SHT31;73824;40.292;17.998;2024-03-06T01:17:30;9.19;91.93
83808;SHT31;73824;40.292;17.998;2024-03-06T01:19:55;9.28;91.74
83808;SHT31;73824;40.292;17.998;2024-03-06T01:22:21;9.21;91.70
83808;SHT31;73824;40.292;17.998;2024-03-06T01:24:46;9.15;91.76
83808;SHT31;73824;40.292;17.998;2024-03-06T01:27:16;9.15;91.82
83808;SHT31;73824;40.292;17.998;2024-03-06T01:29:42;9.12;91.79
83808;SHT31;73824;40.292;17.998;2024-03-06T01:32:08;9.08;91.88
83808;SHT31;73824;40.292;17.998;2024-03-06T01:34:35;9.11;91.88
83808;SHT31;73824;40.292;17.998;2024-03-06T01:37:01;9.03;91.81
83808;SHT31;73824;40.292;17.998;2024-03-06T01:39:26;9.01;91.82
83808;SHT31;73824;40.292;17.998;2024-03-06T01:41:52;8.92;91.75
83808;SHT31;73824;40.292;17.998;2024-03-06T01:44:18;8.92;91.79
83808;SHT31;73824;40.292;17.998;2024-03-06T01:46:44;8.90;91.80
83808;SHT31;73824;40.292;17.998;2024-03-06T01:49:11;8.88;91.74
83808;SHT31;73824;40.292;17.998;2024-03-06T01:51:39;8.81;91.77
83808;SHT31;73824;40.292;17.998;2024-03-06T01:54:04;8.84;91.85
83808;SHT31;73824;40.292;17.998;2024-03-06T01:56:34;8.83;91.81
83808;SHT31;73824;40.292;17.998;2024-03-06T01:59:00;8.85;91.73
83808;SHT31;73824;40.292;17.998;2024-03-06T02:09:13;8.64;91.70
83808;SHT31;73824;40.292;17.998;2024-03-06T02:11:41;8.63;91.67
83808;SHT31;73824;40.292;17.998;2024-03-06T02:14:07;8.66;91.76
83808;SHT31;73824;40.292;17.998;2024-03-06T02:16:36;8.60;91.75
83808;SHT31;73824;40.292;17.998;2024-03-06T02:19:04;8.61;91.82
83808;SHT31;73824;40.292;17.998;2024-03-06T02:21:30;8.60;91.78
83808;SHT31;73824;40.292;17.998;2024-03-06T02:23:56;8.60;91.81
83808;SHT31;73824;40.292;17.998;2024-03-06T02:26:21;8.59;91.78
83808;SHT31;73824;40.292;17.998;2024-03-06T02:28:48;8.56;91.72
83808;SHT31;73824;40.292;17.998;2024-03-06T02:31:15;8.56;91.70
83808;SHT31;73824;40.292;17.998;2024-03-06T02:33:40;8.52;91.65
83808;SHT31;73824;40.292;17.998;2024-03-06T02:36:06;8.48;91.72
83808;SHT31;73824;40.292;17.998;2024-03-06T02:38:31;8.52;91.73
83808;SHT31;73824;40.292;17.998;2024-03-06T02:40:57;8.49;91.74
83808;SHT31;73824;40.292;17.998;2024-03-06T02:43:22;8.48;91.75
83808;SHT31;73824;40.292;17.998;2024-03-06T02:45:48;8.46;91.79
83808;SHT31;73824;40.292;17.998;2024-03-06T02:48:13;8.48;91.78
83808;SHT31;73824;40.292;17.998;2024-03-06T02:50:39;8.39;91.72
83808;SHT31;73824;40.292;17.998;2024-03-06T02:53:04;8.35;91.75
83808;SHT31;73824;40.292;17.998;2024-03-06T02:55:30;8.33;91.74
83808;SHT31;73824;40.292;17.998;2024-03-06T02:57:55;8.29;91.84
83808;SHT31;73824;40.292;17.998;2024-03-06T03:00:21;8.32;91.88
83808;SHT31;73824;40.292;17.998;2024-03-06T03:02:47;8.32;92.06
83808;SHT31;73824;40.292;17.998;2024-03-06T03:05:13;8.31;92.04
83808;SHT31;73824;40.292;17.998;2024-03-06T03:07:38;8.31;92.03
83808;SHT31;73824;40.292;17.998;2024-03-06T03:10:04;8.32;92.03
83808;SHT31;73824;40.292;17.998;2024-03-06T03:12:30;8.36;92.02
83808;SHT31;73824;40.292;17.998;2024-03-06T03:14:55;8.38;92.07
83808;SHT31;73824;40.292;17.998;2024-03-06T03:17:21;8.43;92.05
83808;SHT31;73824;40.292;17.998;2024-03-06T03:19:46;8.45;92.09
83808;SHT31;73824;40.292;17.998;2024-03-06T03:22:12;8.46;92.12
83808;SHT31;73824;40.292;17.998;2024-03-06T03:24:41;8.48;92.15
83808;SHT31;73824;40.292;17.998;2024-03-06T03:27:06;8.43;92.21
83808;SHT31;73824;40.292;17.998;2024-03-06T03:29:33;8.43;92.25
83808;SHT31;73824;40.292;17.998;2024-03-06T03:31:58;8.40;92.31
83808;SHT31;73824;40.292;17.998;2024-03-06T03:34:24;8.39;92.41
83808;SHT31;73824;40.292;17.998;2024-03-06T03:36:49;8.39;92.40
83808;SHT31;73824;40.292;17.998;2024-03-06T03:39:15;8.35;92.49
83808;SHT31;73824;40.292;17.998;2024-03-06T03:41:45;8.33;92.50
83808;SHT31;73824;40.292;17.998;2024-03-06T03:44:18;8.36;92.45
83808;SHT31;73824;40.292;17.998;2024-03-06T03:46:46;8.53;92.36
83808;SHT31;73824;40.292;17.998;2024-03-06T03:49:12;8.63;92.24
83808;SHT31;73824;40.292;17.998;2024-03-06T03:51:38;8.79;91.49
83808;SHT31;73824;40.292;17.998;2024-03-06T03:54:05;8.70;91.45
83808;SHT31;73824;40.292;17.998;2024-03-06T03:56:31;8.69;91.39
83808;SHT31;73824;40.292;17.998;2024-03-06T03:58:57;8.59;91.56
83808;SHT31;73824;40.292;17.998;2024-03-06T04:01:24;8.67;91.60
83808;SHT31;73824;40.292;17.998;2024-03-06T04:03:49;8.63;91.62
83808;SHT31;73824;40.292;17.998;2024-03-06T04:06:16;8.69;91.56
83808;SHT31;73824;40.292;17.998;2024-03-06T04:08:41;8.66;91.43
83808;SHT31;73824;40.292;17.998;2024-03-06T04:11:07;8.59;91.36
83808;SHT31;73824;40.292;17.998;2024-03-06T04:13:38;8.48;91.38
83808;SHT31;73824;40.292;17.998;2024-03-06T04:16:04;8.45;91.13
83808;SHT31;73824;40.292;17.998;2024-03-06T04:18:31;8.43;91.08
83808;SHT31;73824;40.292;17.998;2024-03-06T04:21:06;8.31;91.18
83808;SHT31;73824;40.292;17.998;2024-03-06T04:23:32;8.24;91.44
83808;SHT31;73824;40.292;17.998;2024-03-06T04:25:58;8.21;91.63
83808;SHT31;73824;40.292;17.998;2024-03-06T04:28:24;8.16;91.78
83808;SHT31;73824;40.292;17.998;2024-03-06T04:30:49;8.09;91.95
83808;SHT31;73824;40.292;17.998;2024-03-06T04:33:15;8.05;92.15
83808;SHT31;73824;40.292;17.998;2024-03-06T04:35:41;8.05;92.34
83808;SHT31;73824;40.292;17.998;2024-03-06T04:38:06;8.08;92.49
83808;SHT31;73824;40.292;17.998;2024-03-06T04:40:33;8.15;92.49
83808;SHT31;73824;40.292;17.998;2024-03-06T04:42:59;8.19;92.47
83808;SHT31;73824;40.292;17.998;2024-03-06T04:45:25;8.11;92.45
83808;SHT31;73824;40.292;17.998;2024-03-06T04:47:50;8.06;92.59
83808;SHT31;73824;40.292;17.998;2024-03-06T04:50:16;7.99;92.63
83808;SHT31;73824;40.292;17.998;2024-03-06T04:52:43;7.99;92.76
83808;SHT31;73824;40.292;17.998;2024-03-06T04:55:10;8.01;92.80
83808;SHT31;73824;40.292;17.998;2024-03-06T04:57:37;7.97;92.85
83808;SHT31;73824;40.292;17.998;2024-03-06T05:00:03;7.98;92.98
83808;SHT31;73824;40.292;17.998;2024-03-06T05:02:32;8.03;93.01
83808;SHT31;73824;40.292;17.998;2024-03-06T05:05:02;7.97;93.10
83808;SHT31;73824;40.292;17.998;2024-03-06T05:07:29;7.94;93.18
83808;SHT31;73824;40.292;17.998;2024-03-06T05:09:55;7.95;93.21
83808;SHT31;73824;40.292;17.998;2024-03-06T05:12:21;7.99;93.18
83808;SHT31;73824;40.292;17.998;2024-03-06T05:14:46;7.97;93.28
83808;SHT31;73824;40.292;17.998;2024-03-06T05:17:12;8.01;93.29
83808;SHT31;73824;40.292;17.998;2024-03-06T05:19:37;8.11;93.18
83808;SHT31;73824;40.292;17.998;2024-03-06T05:22:03;8.15;93.26
83808;SHT31;73824;40.292;17.998;2024-03-06T05:24:29;8.18;93.29
83808;SHT31;73824;40.292;17.998;2024-03-06T05:26:55;8.40;93.00
83808;SHT31;73824;40.292;17.998;2024-03-06T05:29:20;8.42;92.26
83808;SHT31;73824;40.292;17.998;2024-03-06T05:31:46;8.50;92.08
83808;SHT31;73824;40.292;17.998;2024-03-06T05:34:11;8.53;90.42
83808;SHT31;73824;40.292;17.998;2024-03-06T05:36:37;8.43;89.33
83808;SHT31;73824;40.292;17.998;2024-03-06T05:39:02;8.28;89.02
83808;SHT31;73824;40.292;17.998;2024-03-06T05:41:33;8.11;88.58
83808;SHT31;73824;40.292;17.998;2024-03-06T05:43:58;7.97;88.46
83808;SHT31;73824;40.292;17.998;2024-03-06T05:46:24;8.09;87.52
83808;SHT31;73824;40.292;17.998;2024-03-06T05:48:50;8.13;87.13
83808;SHT31;73824;40.292;17.998;2024-03-06T05:51:16;8.05;87.61
83808;SHT31;73824;40.292;17.998;2024-03-06T05:53:42;7.99;87.81
83808;SHT31;73824;40.292;17.998;2024-03-06T05:56:09;8.19;87.78
83808;SHT31;73824;40.292;17.998;2024-03-06T05:58:34;8.26;87.04
83808;SHT31;73824;40.292;17.998;2024-03-06T06:01:00;8.53;85.95
83808;SHT31;73824;40.292;17.998;2024-03-06T06:03:29;8.60;86.09
83808;SHT31;73824;40.292;17.998;2024-03-06T06:05:55;8.91;85.52
83808;SHT31;73824;40.292;17.998;2024-03-06T06:08:21;9.31;85.01
83808;SHT31;73824;40.292;17.998;2024-03-06T06:10:46;9.50;85.26
83808;SHT31;73824;40.292;17.998;2024-03-06T06:13:12;9.77;85.14
83808;SHT31;73824;40.292;17.998;2024-03-06T06:15:37;10.14;85.01
83808;SHT31;73824;40.292;17.998;2024-03-06T06:18:03;10.42;84.40
83808;SHT31;73824;40.292;17.998;2024-03-06T06:20:29;10.76;84.17
83808;SHT31;73824;40.292;17.998;2024-03-06T06:22:55;11.16;83.70
83808;SHT31;73824;40.292;17.998;2024-03-06T06:25:20;11.50;82.56
83808;SHT31;73824;40.292;17.998;2024-03-06T06:27:46;11.83;81.90
83808;SHT31;73824;40.292;17.998;2024-03-06T06:30:14;12.24;80.64
83808;SHT31;73824;40.292;17.998;2024-03-06T06:32:43;12.82;77.12
83808;SHT31;73824;40.292;17.998;2024-03-06T06:35:11;13.67;75.10
83808;SHT31;73824;40.292;17.998;2024-03-06T06:37:39;14.67;72.00
83808;SHT31;73824;40.292;17.998;2024-03-06T06:40:08;15.39;68.04
83808;SHT31;73824;40.292;17.998;2024-03-06T06:42:35;16.52;65.57
83808;SHT31;73824;40.292;17.998;2024-03-06T06:45:03;17.51;62.69
83808;SHT31;73824;40.292;17.998;2024-03-06T06:47:31;18.41;55.40
83808;SHT31;73824;40.292;17.998;2024-03-06T06:49:57;20.19;53.50
83808;SHT31;73824;40.292;17.998;2024-03-06T06:52:22;20.56;50.29
83808;SHT31;73824;40.292;17.998;2024-03-06T06:54:48;20.42;50.10
83808;SHT31;73824;40.292;17.998;2024-03-06T06:57:15;21.12;49.01
83808;SHT31;73824;40.292;17.998;2024-03-06T06:59:40;22.16;44.46
83808;SHT31;73824;40.292;17.998;2024-03-06T07:02:06;22.58;44.60
83808;SHT31;73824;40.292;17.998;2024-03-06T07:04:31;23.39;43.09
83808;SHT31;73824;40.292;17.998;2024-03-06T07:06:57;23.09;42.97
83808;SHT31;73824;40.292;17.998;2024-03-06T07:09:22;23.99;43.02
83808;SHT31;73824;40.292;17.998;2024-03-06T07:11:48;25.63;41.13
83808;SHT31;73824;40.292;17.998;2024-03-06T07:14:15;26.53;39.00
83808;SHT31;73824;40.292;17.998;2024-03-06T07:16:47;27.33;36.81
83808;SHT31;73824;40.292;17.998;2024-03-06T07:19:12;27.65;35.24
83808;SHT31;73824;40.292;17.998;2024-03-06T07:21:38;27.17;35.56
83808;SHT31;73824;40.292;17.998;2024-03-06T07:24:04;27.68;37.51
83808;SHT31;73824;40.292;17.998;2024-03-06T07:26:33;28.58;34.94
83808;SHT31;73824;40.292;17.998;2024-03-06T07:28:59;29.08;33.49
83808;SHT31;73824;40.292;17.998;2024-03-06T07:31:25;29.96;32.34
83808;SHT31;73824;40.292;17.998;2024-03-06T07:33:51;29.54;32.77
83808;SHT31;73824;40.292;17.998;2024-03-06T07:36:16;30.52;31.28
83808;SHT31;73824;40.292;17.998;2024-03-06T07:38:42;31.49;30.73
83808;SHT31;73824;40.292;17.998;2024-03-06T07:41:08;32.26;29.65
83808;SHT31;73824;40.292;17.998;2024-03-06T07:43:35;32.05;30.25
83808;SHT31;73824;40.292;17.998;2024-03-06T07:46:00;32.72;28.88
83808;SHT31;73824;40.292;17.998;2024-03-06T07:48:26;30.98;31.35
83808;SHT31;73824;40.292;17.998;2024-03-06T07:50:51;30.76;31.96
83808;SHT31;73824;40.292;17.998;2024-03-06T07:53:17;30.90;32.66
83808;SHT31;73824;40.292;17.998;2024-03-06T07:55:42;30.27;33.00
83808;SHT31;73824;40.292;17.998;2024-03-06T07:58:09;29.09;34.49
83808;SHT31;73824;40.292;17.998;2024-03-06T08:00:34;29.18;34.45
83808;SHT31;73824;40.292;17.998;2024-03-06T08:03:00;29.18;32.43
83808;SHT31;73824;40.292;17.998;2024-03-06T08:05:27;28.24;35.30
83808;SHT31;73824;40.292;17.998;2024-03-06T08:07:53;28.41;35.02
83808;SHT31;73824;40.292;17.998;2024-03-06T08:10:18;28.65;33.13
83808;SHT31;73824;40.292;17.998;2024-03-06T08:12:45;27.23;37.03
83808;SHT31;73824;40.292;17.998;2024-03-06T08:15:12;29.35;33.70
83808;SHT31;73824;40.292;17.998;2024-03-06T08:17:43;29.20;33.67
83808;SHT31;73824;40.292;17.998;2024-03-06T08:20:09;28.82;32.86
83808;SHT31;73824;40.292;17.998;2024-03-06T08:22:36;27.95;34.61
83808;SHT31;73824;40.292;17.998;2024-03-06T08:25:09;28.24;34.66
83808;SHT31;73824;40.292;17.998;2024-03-06T08:27:36;27.92;33.68
83808;SHT31;73824;40.292;17.998;2024-03-06T08:30:03;27.27;36.74
83808;SHT31;73824;40.292;17.998;2024-03-06T08:32:32;29.50;32.47
83808;SHT31;73824;40.292;17.998;2024-03-06T08:35:02;27.89;33.89
83808;SHT31;73824;40.292;17.998;2024-03-06T08:37:27;27.71;35.19
83808;SHT31;73824;40.292;17.998;2024-03-06T08:39:53;30.07;31.33
83808;SHT31;73824;40.292;17.998;2024-03-06T08:42:18;29.74;31.95
83808;SHT31;73824;40.292;17.998;2024-03-06T08:44:44;31.21;30.51
83808;SHT31;73824;40.292;17.998;2024-03-06T08:47:11;28.51;34.17
83808;SHT31;73824;40.292;17.998;2024-03-06T08:49:37;30.43;32.37
83808;SHT31;73824;40.292;17.998;2024-03-06T08:52:02;29.32;33.42
83808;SHT31;73824;40.292;17.998;2024-03-06T08:54:28;30.27;31.17
83808;SHT31;73824;40.292;17.998;2024-03-06T08:56:55;30.25;31.26
83808;SHT31;73824;40.292;17.998;2024-03-06T08:59:23;30.18;31.58
83808;SHT31;73824;40.292;17.998;2024-03-06T09:01:52;29.33;31.47
83808;SHT31;73824;40.292;17.998;2024-03-06T09:04:17;30.15;31.53
83808;SHT31;73824;40.292;17.998;2024-03-06T09:06:43;30.87;29.82
83808;SHT31;73824;40.292;17.998;2024-03-06T09:09:08;31.51;29.65
83808;SHT31;73824;40.292;17.998;2024-03-06T09:11:34;30.28;30.68
83808;SHT31;73824;40.292;17.998;2024-03-06T09:14:00;30.98;29.93
83808;SHT31;73824;40.292;17.998;2024-03-06T09:16:26;30.31;30.36
83808;SHT31;73824;40.292;17.998;2024-03-06T09:18:52;31.25;28.86
83808;SHT31;73824;40.292;17.998;2024-03-06T09:21:17;29.27;31.35
83808;SHT31;73824;40.292;17.998;2024-03-06T09:23:43;29.91;31.01
83808;SHT31;73824;40.292;17.998;2024-03-06T09:26:08;28.01;32.78
83808;SHT31;73824;40.292;17.998;2024-03-06T09:28:34;30.29;29.79
83808;SHT31;73824;40.292;17.998;2024-03-06T09:30:59;30.60;29.55
83808;SHT31;73824;40.292;17.998;2024-03-06T09:33:26;29.40;30.88
83808;SHT31;73824;40.292;17.998;2024-03-06T09:35:51;28.90;31.58
83808;SHT31;73824;40.292;17.998;2024-03-06T09:38:17;28.10;32.42
83808;SHT31;73824;40.292;17.998;2024-03-06T09:40:43;27.77;33.38
83808;SHT31;73824;40.292;17.998;2024-03-06T09:43:08;29.92;30.35
83808;SHT31;73824;40.292;17.998;2024-03-06T09:45:34;27.22;34.18
83808;SHT31;73824;40.292;17.998;2024-03-06T09:48:01;28.58;32.43
83808;SHT31;73824;40.292;17.998;2024-03-06T09:50:29;28.47;32.60
83808;SHT31;73824;40.292;17.998;2024-03-06T09:53:00;25.93;35.11
83808;SHT31;73824;40.292;17.998;2024-03-06T09:55:26;26.31;33.85
83808;SHT31;73824;40.292;17.998;2024-03-06T09:57:52;25.31;34.92
83808;SHT31;73824;40.292;17.998;2024-03-06T10:00:18;25.50;35.83
83808;SHT31;73824;40.292;17.998;2024-03-06T10:02:57;26.47;34.22
83808;SHT31;73824;40.292;17.998;2024-03-06T10:05:25;28.10;32.11
83808;SHT31;73824;40.292;17.998;2024-03-06T10:07:51;27.20;32.96
83808;SHT31;73824;40.292;17.998;2024-03-06T10:10:19;27.77;33.45
83808;SHT31;73824;40.292;17.998;2024-03-06T10:12:45;27.59;32.09
83808;SHT31;73824;40.292;17.998;2024-03-06T10:15:13;26.92;33.13
83808;SHT31;73824;40.292;17.998;2024-03-06T10:17:39;26.55;34.43
83808;SHT31;73824;40.292;17.998;2024-03-06T10:22:49;22.43;40.58
83808;SHT31;73824;40.292;17.998;2024-03-06T10:25:14;22.28;43.96
83808;SHT31;73824;40.292;17.998;2024-03-06T10:27:40;21.39;45.99
83808;SHT31;73824;40.292;17.998;2024-03-06T10:30:06;21.28;47.04
83808;SHT31;73824;40.292;17.998;2024-03-06T10:32:36;21.24;47.27
83808;SHT31;73824;40.292;17.998;2024-03-06T10:35:02;21.62;47.18
83808;SHT31;73824;40.292;17.998;2024-03-06T10:37:29;22.16;45.97
83808;SHT31;73824;40.292;17.998;2024-03-06T10:39:54;22.62;45.27
83808;SHT31;73824;40.292;17.998;2024-03-06T10:42:26;23.46;42.64
83808;SHT31;73824;40.292;17.998;2024-03-06T10:44:55;23.06;43.33
83808;SHT31;73824;40.292;17.998;2024-03-06T10:47:25;23.40;42.81
83808;SHT31;73824;40.292;17.998;2024-03-06T10:49:52;24.11;40.99
83808;SHT31;73824;40.292;17.998;2024-03-06T10:52:19;24.97;39.83
83808;SHT31;73824;40.292;17.998;2024-03-06T10:54:46;22.88;42.73
83808;SHT31;73824;40.292;17.998;2024-03-06T10:57:14;23.13;41.89
83808;SHT31;73824;40.292;17.998;2024-03-06T10:59:40;22.88;41.90
83808;SHT31;73824;40.292;17.998;2024-03-06T11:02:08;23.61;42.02
83808;SHT31;73824;40.292;17.998;2024-03-06T11:04:35;23.61;40.61
83808;SHT31;73824;40.292;17.998;2024-03-06T11:07:04;23.42;39.91
83808;SHT31;73824;40.292;17.998;2024-03-06T11:09:37;23.05;41.28
83808;SHT31;73824;40.292;17.998;2024-03-06T11:12:06;23.44;40.96
83808;SHT31;73824;40.292;17.998;2024-03-06T11:14:32;23.43;39.68
83808;SHT31;73824;40.292;17.998;2024-03-06T11:17:03;23.39;40.19
83808;SHT31;73824;40.292;17.998;2024-03-06T11:19:32;23.42;39.76
83808;SHT31;73824;40.292;17.998;2024-03-06T11:22:18;24.11;38.97
83808;SHT31;73824;40.292;17.998;2024-03-06T11:24:43;22.69;40.34
83808;SHT31;73824;40.292;17.998;2024-03-06T11:27:09;21.45;43.46
83808;SHT31;73824;40.292;17.998;2024-03-06T11:32:37;22.03;43.64
83808;SHT31;73824;40.292;17.998;2024-03-06T11:35:03;20.80;44.72
83808;SHT31;73824;40.292;17.998;2024-03-06T11:37:34;22.00;43.96
83808;SHT31;73824;40.292;17.998;2024-03-06T11:40:03;21.56;43.81
83808;SHT31;73824;40.292;17.998;2024-03-06T11:42:34;22.03;43.41
83808;SHT31;73824;40.292;17.998;2024-03-06T11:45:13;21.75;42.53
83808;SHT31;73824;40.292;17.998;2024-03-06T11:48:01;20.83;43.50
83808;SHT31;73824;40.292;17.998;2024-03-06T11:50:27;20.42;45.14
83808;SHT31;73824;40.292;17.998;2024-03-06T11:52:53;20.25;46.10
83808;SHT31;73824;40.292;17.998;2024-03-06T11:55:22;20.18;45.87
83808;SHT31;73824;40.292;17.998;2024-03-06T11:57:47;20.48;46.09
83808;SHT31;73824;40.292;17.998;2024-03-06T12:00:13;21.31;44.32
83808;SHT31;73824;40.292;17.998;2024-03-06T12:02:40;20.57;45.66
83808;SHT31;73824;40.292;17.998;2024-03-06T12:05:06;20.32;45.89
83808;SHT31;73824;40.292;17.998;2024-03-06T12:07:31;20.32;46.45
83808;SHT31;73824;40.292;17.998;2024-03-06T12:09:58;20.48;45.57
83808;SHT31;73824;40.292;17.998;2024-03-06T12:12:24;20.43;46.56
83808;SHT31;73824;40.292;17.998;2024-03-06T12:14:59;20.59;45.73
83808;SHT31;73824;40.292;17.998;2024-03-06T12:17:29;20.52;44.12
83808;SHT31;73824;40.292;17.998;2024-03-06T12:19:56;20.29;45.08
83808;SHT31;73824;40.292;17.998;2024-03-06T12:22:25;20.48;46.06
83808;SHT31;73824;40.292;17.998;2024-03-06T12:24:58;20.29;44.39
83808;SHT31;73824;40.292;17.998;2024-03-06T12:27:24;19.90;45.42
83808;SHT31;73824;40.292;17.998;2024-03-06T12:29:52;19.61;45.89
83808;SHT31;73824;40.292;17.998;2024-03-06T12:32:18;19.64;46.16
83808;SHT31;73824;40.292;17.998;2024-03-06T12:34:43;19.69;45.44
83808;SHT31;73824;40.292;17.998;2024-03-06T12:37:09;19.69;45.86
83808;SHT31;73824;40.292;17.998;2024-03-06T12:39:37;19.33;45.89
83808;SHT31;73824;40.292;17.998;2024-03-06T12:42:03;19.56;45.45
83808;SHT31;73824;40.292;17.998;2024-03-06T12:44:29;19.60;45.01
83808;SHT31;73824;40.292;17.998;2024-03-06T12:46:54;19.91;44.40
83808;SHT31;73824;40.292;17.998;2024-03-06T12:49:19;19.67;44.89
83808;SHT31;73824;40.292;17.998;2024-03-06T12:51:45;19.75;45.36
83808;SHT31;73824;40.292;17.998;2024-03-06T12:54:10;19.70;44.67
83808;SHT31;73824;40.292;17.998;2024-03-06T12:56:36;19.30;45.90
83808;SHT31;73824;40.292;17.998;2024-03-06T12:59:01;19.25;45.70
83808;SHT31;73824;40.292;17.998;2024-03-06T13:01:27;19.37;45.87
83808;SHT31;73824;40.292;17.998;2024-03-06T13:03:53;19.64;46.38
83808;SHT31;73824;40.292;17.998;2024-03-06T13:06:18;19.50;45.99
83808;SHT31;73824;40.292;17.998;2024-03-06T13:08:44;19.52;45.40
83808;SHT31;73824;40.292;17.998;2024-03-06T13:11:10;19.70;45.41
83808;SHT31;73824;40.292;17.998;2024-03-06T13:13:38;19.67;44.21
83808;SHT31;73824;40.292;17.998;2024-03-06T13:16:04;19.59;45.66
83808;SHT31;73824;40.292;17.998;2024-03-06T13:18:29;19.45;46.58
83808;SHT31;73824;40.292;17.998;2024-03-06T13:20:55;19.47;43.87
83808;SHT31;73824;40.292;17.998;2024-03-06T13:23:23;19.40;47.73
83808;SHT31;73824;40.292;17.998;2024-03-06T13:25:49;19.25;47.90
83808;SHT31;73824;40.292;17.998;2024-03-06T13:28:14;19.49;47.53
83808;SHT31;73824;40.292;17.998;2024-03-06T13:30:40;19.39;48.79
83808;SHT31;73824;40.292;17.998;2024-03-06T13:33:05;19.56;51.28
83808;SHT31;73824;40.292;17.998;2024-03-06T13:35:32;19.32;49.99
83808;SHT31;73824;40.292;17.998;2024-03-06T13:37:58;19.49;48.32
83808;SHT31;73824;40.292;17.998;2024-03-06T13:40:24;19.09;50.84
83808;SHT31;73824;40.292;17.998;2024-03-06T13:42:51;18.83;52.26
83808;SHT31;73824;40.292;17.998;2024-03-06T13:45:16;18.61;54.22
83808;SHT31;73824;40.292;17.998;2024-03-06T13:47:43;18.81;53.46
83808;SHT31;73824;40.292;17.998;2024-03-06T13:50:10;19.01;54.29
83808;SHT31;73824;40.292;17.998;2024-03-06T13:52:36;19.18;54.47
83808;SHT31;73824;40.292;17.998;2024-03-06T13:55:02;19.05;55.81
83808;SHT31;73824;40.292;17.998;2024-03-06T13:57:30;19.26;55.95
83808;SHT31;73824;40.292;17.998;2024-03-06T13:59:58;19.04;55.94
83808;SHT31;73824;40.292;17.998;2024-03-06T14:02:27;19.15;55.87
83808;SHT31;73824;40.292;17.998;2024-03-06T14:04:52;18.99;54.99
83808;SHT31;73824;40.292;17.998;2024-03-06T14:07:18;19.05;54.46
83808;SHT31;73824;40.292;17.998;2024-03-06T14:09:43;19.22;54.36
83808;SHT31;73824;40.292;17.998;2024-03-06T14:12:09;19.16;53.15
83808;SHT31;73824;40.292;17.998;2024-03-06T14:14:34;18.44;54.37
83808;SHT31;73824;40.292;17.998;2024-03-06T14:17:00;18.81;54.23
83808;SHT31;73824;40.292;17.998;2024-03-06T14:19:25;19.09;53.62
83808;SHT31;73824;40.292;17.998;2024-03-06T14:21:51;19.05;53.49
83808;SHT31;73824;40.292;17.998;2024-03-06T14:24:16;18.88;54.14
83808;SHT31;73824;40.292;17.998;2024-03-06T14:26:42;19.02;53.70
83808;SHT31;73824;40.292;17.998;2024-03-06T14:29:07;18.63;55.12
83808;SHT31;73824;40.292;17.998;2024-03-06T14:31:34;19.04;54.73
83808;SHT31;73824;40.292;17.998;2024-03-06T14:34:00;18.95;54.94
83808;SHT31;73824;40.292;17.998;2024-03-06T14:36:25;18.84;56.14
83808;SHT31;73824;40.292;17.998;2024-03-06T14:38:51;19.53;55.19
83808;SHT31;73824;40.292;17.998;2024-03-06T14:41:20;18.89;56.07
83808;SHT31;73824;40.292;17.998;2024-03-06T14:43:46;18.33;58.38
83808;SHT31;73824;40.292;17.998;2024-03-06T14:46:11;17.93;59.65
83808;SHT31;73824;40.292;17.998;2024-03-06T14:48:38;17.81;60.36
83808;SHT31;73824;40.292;17.998;2024-03-06T14:51:03;17.82;60.91
83808;SHT31;73824;40.292;17.998;2024-03-06T14:53:29;17.81;61.26
83808;SHT31;73824;40.292;17.998;2024-03-06T14:55:59;17.50;61.84
83808;SHT31;73824;40.292;17.998;2024-03-06T14:58:24;17.38;62.22
83808;SHT31;73824;40.292;17.998;2024-03-06T15:00:50;17.24;63.78
83808;SHT31;73824;40.292;17.998;2024-03-06T15:03:16;17.23;63.66
83808;SHT31;73824;40.292;17.998;2024-03-06T15:05:43;17.17;64.15
83808;SHT31;73824;40.292;17.998;2024-03-06T15:08:10;17.30;64.92
83808;SHT31;73824;40.292;17.998;2024-03-06T15:10:36;17.41;66.70
83808;SHT31;73824;40.292;17.998;2024-03-06T15:13:01;17.75;67.34
83808;SHT31;73824;40.292;17.998;2024-03-06T15:15:27;17.96;66.63
83808;SHT31;73824;40.292;17.998;2024-03-06T15:17:52;18.23;64.27
83808;SHT31;73824;40.292;17.998;2024-03-06T15:20:18;18.14;62.90
83808;SHT31;73824;40.292;17.998;2024-03-06T15:22:43;18.27;63.17
83808;SHT31;73824;40.292;17.998;2024-03-06T15:25:13;17.93;57.37
83808;SHT31;73824;40.292;17.998;2024-03-06T15:27:39;18.14;58.65
83808;SHT31;73824;40.292;17.998;2024-03-06T15:30:06;18.13;62.97
83808;SHT31;73824;40.292;17.998;2024-03-06T15:32:31;17.88;62.36